createdAt,value
2018-12-06T00:00:08.181Z,13.40
2018-12-06T00:01:08.102Z,12.90
2018-12-06T00:02:08.093Z,13.10
2018-12-06T00:03:08.082Z,12.90
2018-12-06T00:04:08.086Z,13.60
2018-12-06T00:05:08.073Z,13.80
2018-12-06T00:06:08.055Z,13.00
2018-12-06T00:07:08.039Z,12.90
2018-12-06T00:08:08.028Z,13.00
2018-12-06T00:09:08.043Z,13.60
2018-12-06T00:10:08.015Z,14.00
2018-12-06T00:11:08.008Z,14.20
2018-12-06T00:12:08.039Z,13.80
2018-12-06T00:13:08.033Z,13.50
2018-12-06T00:14:07.980Z,13.60
2018-12-06T00:15:07.955Z,13.20
2018-12-06T00:16:07.943Z,13.20
2018-12-06T00:17:07.932Z,13.80
2018-12-06T00:18:07.936Z,13.00
2018-12-06T00:19:07.949Z,14.40
2018-12-06T00:20:07.916Z,13.30
2018-12-06T00:21:07.886Z,13.70
2018-12-06T00:22:07.885Z,13.70
2018-12-06T00:23:07.865Z,13.30
2018-12-06T00:24:07.894Z,12.90
2018-12-06T00:25:07.855Z,14.00
2018-12-06T00:26:07.841Z,12.70
2018-12-06T00:27:07.825Z,12.90
2018-12-06T00:28:07.837Z,13.60
2018-12-06T00:29:07.816Z,13.90
2018-12-06T00:30:07.849Z,13.10
2018-12-06T00:31:07.780Z,13.40
2018-12-06T00:32:07.769Z,14.00
2018-12-06T00:33:07.770Z,13.30
2018-12-06T00:34:07.748Z,13.50
2018-12-06T00:35:07.781Z,13.70
2018-12-06T00:36:07.734Z,13.50
2018-12-06T00:37:07.751Z,13.40
2018-12-06T00:38:07.709Z,13.20
2018-12-06T00:39:07.713Z,13.90
2018-12-06T00:40:07.685Z,14.10
2018-12-06T00:41:07.733Z,13.40
2018-12-06T00:42:07.666Z,13.60
2018-12-06T00:43:07.665Z,13.40
2018-12-06T00:44:07.685Z,14.50
2018-12-06T00:45:07.640Z,13.30
2018-12-06T00:46:07.641Z,13.70
2018-12-06T00:47:07.609Z,12.90
2018-12-06T00:48:07.615Z,13.40
2018-12-06T00:49:07.591Z,13.50
2018-12-06T00:50:07.576Z,13.30
2018-12-06T00:51:07.603Z,13.50
2018-12-06T00:52:07.560Z,13.70
2018-12-06T00:53:07.545Z,12.80
2018-12-06T00:54:07.537Z,12.60
2018-12-06T00:55:07.527Z,14.00
2018-12-06T00:56:07.542Z,13.20
2018-12-06T00:57:07.500Z,13.40
2018-12-06T00:58:07.508Z,13.50
2018-12-06T00:59:07.488Z,13.80
2018-12-06T01:00:07.470Z,13.60
2018-12-06T01:01:07.478Z,13.20
2018-12-06T01:02:07.451Z,14.10
2018-12-06T01:03:07.464Z,13.40
2018-12-06T01:04:07.435Z,13.80
2018-12-06T01:05:07.440Z,13.20
2018-12-06T01:06:07.454Z,13.10
2018-12-06T01:07:07.398Z,14.10
2018-12-06T01:08:07.391Z,13.30
2018-12-06T01:09:07.379Z,13.10
2018-12-06T01:10:07.363Z,13.60
2018-12-06T01:11:07.353Z,13.90
2018-12-06T01:12:07.362Z,13.00
2018-12-06T01:13:07.327Z,12.60
2018-12-06T01:14:07.319Z,13.70
2018-12-06T01:15:07.311Z,13.90
2018-12-06T01:16:07.304Z,13.50
2018-12-06T01:17:07.305Z,14.00
2018-12-06T01:18:07.275Z,14.40
2018-12-06T01:19:07.265Z,13.40
2018-12-06T01:20:07.253Z,14.00
2018-12-06T01:21:07.247Z,14.10
2018-12-06T01:22:07.262Z,14.10
2018-12-06T01:23:07.234Z,13.90
2018-12-06T01:24:07.248Z,14.60
2018-12-06T01:25:07.235Z,14.20
2018-12-06T01:26:07.193Z,14.30
2018-12-06T01:27:07.185Z,14.10
2018-12-06T01:28:07.195Z,13.70
2018-12-06T01:29:07.158Z,14.30
2018-12-06T01:30:07.145Z,14.30
2018-12-06T01:31:07.152Z,13.60
2018-12-06T01:32:07.133Z,14.00
2018-12-06T01:33:07.161Z,13.60
2018-12-06T01:34:07.113Z,13.40
2018-12-06T01:35:07.117Z,14.60
2018-12-06T01:36:07.117Z,13.70
2018-12-06T01:37:07.086Z,13.90
2018-12-06T01:38:07.083Z,13.90
2018-12-06T01:39:07.135Z,13.60
2018-12-06T01:40:07.063Z,13.50
2018-12-06T01:41:07.036Z,13.90
2018-12-06T01:42:07.091Z,13.90
2018-12-06T01:43:07.044Z,14.70
2018-12-06T01:44:07.008Z,13.50
2018-12-06T01:45:06.987Z,13.40
2018-12-06T01:46:06.976Z,13.60
2018-12-06T01:47:06.967Z,14.00
2018-12-06T01:48:06.971Z,13.70
2018-12-06T01:49:06.994Z,13.80
2018-12-06T01:50:06.932Z,13.90
2018-12-06T01:51:06.931Z,14.60
2018-12-06T01:52:06.916Z,15.10
2018-12-06T01:53:06.926Z,14.50
2018-12-06T01:54:06.888Z,14.50
2018-12-06T01:55:06.877Z,13.50
2018-12-06T01:56:06.866Z,14.10
2018-12-06T01:57:06.864Z,13.70
2018-12-06T01:58:06.893Z,13.50
2018-12-06T01:59:06.866Z,13.30
2018-12-06T02:00:06.827Z,13.80
2018-12-06T02:01:06.816Z,13.50
2018-12-06T02:02:06.803Z,14.00
2018-12-06T02:03:06.808Z,13.30
2018-12-06T02:04:06.854Z,13.80
2018-12-06T02:05:06.771Z,14.10
2018-12-06T02:06:06.758Z,14.20
2018-12-06T02:07:06.745Z,13.10
2018-12-06T02:08:06.760Z,13.20
2018-12-06T02:09:06.728Z,14.00
2018-12-06T02:10:06.718Z,13.80
2018-12-06T02:11:06.705Z,13.50
2018-12-06T02:12:06.704Z,13.00
2018-12-06T02:13:06.706Z,13.50
2018-12-06T02:14:06.668Z,13.20
2018-12-06T02:15:06.658Z,12.80
2018-12-06T02:16:06.667Z,13.40
2018-12-06T02:17:06.643Z,13.00
2018-12-06T02:18:06.644Z,13.40
2018-12-06T02:19:06.617Z,13.40
2018-12-06T02:20:06.645Z,12.60
2018-12-06T02:21:06.595Z,13.10
2018-12-06T02:22:06.580Z,12.70
2018-12-06T02:23:06.602Z,13.00
2018-12-06T02:24:06.563Z,13.40
2018-12-06T02:25:06.559Z,12.10
2018-12-06T02:26:06.573Z,12.10
2018-12-06T02:27:06.537Z,13.10
2018-12-06T02:28:06.554Z,12.50
2018-12-06T02:29:06.516Z,13.20
2018-12-06T02:30:06.508Z,12.60
2018-12-06T02:31:06.500Z,12.40
2018-12-06T02:32:06.487Z,13.20
2018-12-06T02:33:06.467Z,12.50
2018-12-06T02:34:06.474Z,12.70
2018-12-06T02:35:06.450Z,12.30
2018-12-06T02:36:06.455Z,11.70
2018-12-06T02:37:06.421Z,12.00
2018-12-06T02:38:06.417Z,12.40
2018-12-06T02:39:06.434Z,12.60
2018-12-06T02:40:06.393Z,12.70
2018-12-06T02:41:06.376Z,12.40
2018-12-06T02:42:06.375Z,12.90
2018-12-06T02:43:06.356Z,12.00
2018-12-06T02:44:06.375Z,12.20
2018-12-06T02:45:06.338Z,13.30
2018-12-06T02:46:06.322Z,12.50
2018-12-06T02:47:06.318Z,12.80
2018-12-06T02:48:06.304Z,12.70
2018-12-06T02:49:06.337Z,12.60
2018-12-06T02:50:06.309Z,12.80
2018-12-06T02:51:06.274Z,12.10
2018-12-06T02:52:06.275Z,12.80
2018-12-06T02:53:06.277Z,12.20
2018-12-06T02:54:06.240Z,11.50
2018-12-06T02:55:06.249Z,12.40
2018-12-06T02:56:06.214Z,11.70
2018-12-06T02:57:06.215Z,12.60
2018-12-06T02:58:06.205Z,12.10
2018-12-06T02:59:06.203Z,12.20
2018-12-06T03:00:06.224Z,11.70
2018-12-06T03:01:06.169Z,12.90
2018-12-06T03:02:06.150Z,12.50
2018-12-06T03:03:06.154Z,12.90
2018-12-06T03:04:06.131Z,12.60
2018-12-06T03:05:06.131Z,12.20
2018-12-06T03:06:06.132Z,12.00
2018-12-06T03:07:06.118Z,12.90
2018-12-06T03:08:13.637Z,12.80
2018-12-06T03:09:13.612Z,12.50
2018-12-06T03:10:13.630Z,12.80
2018-12-06T03:11:15.618Z,12.80
2018-12-06T03:12:06.046Z,13.00
2018-12-06T03:13:06.033Z,12.50
2018-12-06T03:14:06.023Z,12.50
2018-12-06T03:15:06.010Z,11.80
2018-12-06T03:16:06.019Z,12.40
2018-12-06T03:17:05.989Z,12.50
2018-12-06T03:18:05.978Z,12.20
2018-12-06T03:19:05.988Z,12.20
2018-12-06T03:20:05.960Z,13.00
2018-12-06T03:21:05.963Z,11.70
2018-12-06T03:22:05.948Z,12.70
2018-12-06T03:23:05.948Z,11.90
2018-12-06T03:24:05.920Z,12.60
2018-12-06T03:25:05.915Z,12.20
2018-12-06T03:26:05.918Z,11.70
2018-12-06T03:27:05.894Z,11.50
2018-12-06T03:28:05.875Z,12.20
2018-12-06T03:29:05.878Z,12.20
2018-12-06T03:30:05.849Z,12.00
2018-12-06T03:31:05.864Z,11.40
2018-12-06T03:32:05.844Z,11.20
2018-12-06T03:33:05.824Z,12.00
2018-12-06T03:34:05.828Z,12.50
2018-12-06T03:35:05.803Z,11.80
2018-12-06T03:36:05.838Z,12.20
2018-12-06T03:37:05.778Z,12.20
2018-12-06T03:38:05.764Z,11.80
2018-12-06T03:39:05.775Z,11.90
2018-12-06T03:40:05.756Z,11.70
2018-12-06T03:41:05.761Z,12.00
2018-12-06T03:42:05.723Z,12.30
2018-12-06T03:43:05.710Z,11.70
2018-12-06T03:44:05.718Z,11.90
2018-12-06T03:45:05.693Z,11.90
2018-12-06T03:46:05.706Z,11.70
2018-12-06T03:47:05.668Z,12.10
2018-12-06T03:48:05.656Z,12.10
2018-12-06T03:49:05.646Z,11.70
2018-12-06T03:50:05.640Z,12.40
2018-12-06T03:51:05.642Z,12.10
2018-12-06T03:52:05.656Z,11.90
2018-12-06T03:53:05.601Z,11.60
2018-12-06T03:54:05.660Z,11.50
2018-12-06T03:55:05.654Z,11.80
2018-12-06T03:56:05.606Z,11.30
2018-12-06T03:57:05.573Z,11.20
2018-12-06T03:58:05.553Z,11.60
2018-12-06T03:59:05.539Z,11.20
2018-12-06T04:00:05.527Z,11.90
2018-12-06T04:01:05.651Z,11.20
2018-12-06T04:02:05.513Z,12.10
2018-12-06T04:03:05.500Z,11.70
2018-12-06T04:04:05.534Z,11.50
2018-12-06T04:05:05.472Z,12.00
2018-12-06T04:06:05.492Z,12.00
2018-12-06T04:07:05.455Z,11.50
2018-12-06T04:08:05.448Z,11.60
2018-12-06T04:09:05.450Z,11.80
2018-12-06T04:10:05.420Z,11.10
2018-12-06T04:11:05.411Z,11.40
2018-12-06T04:12:05.434Z,11.40
2018-12-06T04:13:05.391Z,11.50
2018-12-06T04:14:05.394Z,11.00
2018-12-06T04:15:05.366Z,10.80
2018-12-06T04:16:05.383Z,11.50
2018-12-06T04:17:05.363Z,11.20
2018-12-06T04:18:05.336Z,10.80
2018-12-06T04:19:05.325Z,11.20
2018-12-06T04:20:05.326Z,10.70
2018-12-06T04:21:05.351Z,10.90
2018-12-06T04:22:05.297Z,11.40
2018-12-06T04:23:05.281Z,11.40
2018-12-06T04:24:05.281Z,11.50
2018-12-06T04:25:05.259Z,11.10
2018-12-06T04:26:05.294Z,10.30
2018-12-06T04:27:05.256Z,11.10
2018-12-06T04:28:05.236Z,10.60
2018-12-06T04:29:05.223Z,11.00
2018-12-06T04:30:05.209Z,11.30
2018-12-06T04:31:05.199Z,11.20
2018-12-06T04:32:05.200Z,11.30
2018-12-06T04:33:05.190Z,11.30
2018-12-06T04:34:05.166Z,11.10
2018-12-06T04:35:05.160Z,11.10
2018-12-06T04:36:05.167Z,10.50
2018-12-06T04:37:05.152Z,11.30
2018-12-06T04:38:05.130Z,11.90
2018-12-06T04:39:05.113Z,10.40
2018-12-06T04:40:05.101Z,10.90
2018-12-06T04:41:05.090Z,10.80
2018-12-06T04:42:05.100Z,11.30
2018-12-06T04:43:05.068Z,11.70
2018-12-06T04:44:05.064Z,12.10
2018-12-06T04:45:05.083Z,11.30
2018-12-06T04:46:05.038Z,11.00
2018-12-06T04:47:05.027Z,10.80
2018-12-06T04:48:05.058Z,10.90
2018-12-06T04:49:05.008Z,11.00
2018-12-06T04:50:05.005Z,11.10
2018-12-06T04:51:04.985Z,10.80
2018-12-06T04:52:05.019Z,10.60
2018-12-06T04:53:05.023Z,11.10
2018-12-06T04:54:04.955Z,11.00
2018-12-06T04:55:04.937Z,10.80
2018-12-06T04:56:04.940Z,11.00
2018-12-06T04:57:04.950Z,10.40
2018-12-06T04:58:04.911Z,10.60
2018-12-06T04:59:04.926Z,10.30
2018-12-06T05:00:04.888Z,10.20
2018-12-06T05:01:04.883Z,11.40
2018-12-06T05:02:04.873Z,11.30
2018-12-06T05:03:04.867Z,11.10
2018-12-06T05:04:04.867Z,10.30
2018-12-06T05:05:04.931Z,11.10
2018-12-06T05:06:04.839Z,10.90
2018-12-06T05:07:04.862Z,10.90
2018-12-06T05:08:04.803Z,11.10
2018-12-06T05:09:04.858Z,10.40
2018-12-06T05:10:04.781Z,11.30
2018-12-06T05:11:04.767Z,10.90
2018-12-06T05:12:04.760Z,10.90
2018-12-06T05:13:04.770Z,11.20
2018-12-06T05:14:04.755Z,10.40
2018-12-06T05:15:04.729Z,10.70
2018-12-06T05:16:04.721Z,10.50
2018-12-06T05:17:04.721Z,10.90
2018-12-06T05:18:04.716Z,10.90
2018-12-06T05:19:04.714Z,10.80
2018-12-06T05:20:04.692Z,11.20
2018-12-06T05:21:04.661Z,10.70
2018-12-06T05:22:04.666Z,10.40
2018-12-06T05:23:04.638Z,11.20
2018-12-06T05:24:04.651Z,11.30
2018-12-06T05:25:04.654Z,10.70
2018-12-06T05:26:04.608Z,11.70
2018-12-06T05:27:04.598Z,11.10
2018-12-06T05:28:04.604Z,11.20
2018-12-06T05:29:04.584Z,10.90
2018-12-06T05:30:04.604Z,11.70
2018-12-06T05:31:04.562Z,11.00
2018-12-06T05:32:04.548Z,11.30
2018-12-06T05:33:04.534Z,11.20
2018-12-06T05:34:12.165Z,10.70
2018-12-06T05:35:04.615Z,11.70
2018-12-06T05:36:04.582Z,11.40
2018-12-06T05:37:04.520Z,12.10
2018-12-06T05:38:04.605Z,12.20
2018-12-06T05:39:04.490Z,11.00
2018-12-06T05:40:04.554Z,11.40
2018-12-06T05:41:04.506Z,12.00
2018-12-06T05:42:04.448Z,12.00
2018-12-06T05:43:04.428Z,12.10
2018-12-06T05:44:04.432Z,12.60
2018-12-06T05:45:04.418Z,11.70
2018-12-06T05:46:04.430Z,11.70
2018-12-06T05:47:04.407Z,11.90
2018-12-06T05:48:04.380Z,11.80
2018-12-06T05:49:04.363Z,12.00
2018-12-06T05:50:04.352Z,12.50
2018-12-06T05:51:04.360Z,11.70
2018-12-06T05:52:04.336Z,11.70
2018-12-06T05:53:04.322Z,11.50
2018-12-06T05:54:04.321Z,12.10
2018-12-06T05:55:04.300Z,12.50
2018-12-06T05:56:04.311Z,11.80
2018-12-06T05:57:04.279Z,11.50
2018-12-06T05:58:04.314Z,11.50
2018-12-06T05:59:04.258Z,11.80
2018-12-06T06:00:04.248Z,12.40
2018-12-06T06:01:04.272Z,11.90
2018-12-06T06:02:04.224Z,12.60
2018-12-06T06:03:04.216Z,11.90
2018-12-06T06:04:04.213Z,11.60
2018-12-06T06:05:04.192Z,11.50
2018-12-06T06:06:04.186Z,11.90
2018-12-06T06:07:04.194Z,12.60
2018-12-06T06:08:04.166Z,11.40
2018-12-06T06:09:04.163Z,12.30
2018-12-06T06:10:04.151Z,11.50
2018-12-06T06:11:04.131Z,12.80
2018-12-06T06:12:04.137Z,12.60
2018-12-06T06:13:04.170Z,13.10
2018-12-06T06:14:04.097Z,11.60
2018-12-06T06:15:04.109Z,11.50
2018-12-06T06:16:04.094Z,12.30
2018-12-06T06:17:04.085Z,11.50
2018-12-06T06:18:04.055Z,12.40
2018-12-06T06:19:04.040Z,12.10
2018-12-06T06:20:04.038Z,12.60
2018-12-06T06:21:04.021Z,12.70
2018-12-06T06:22:04.035Z,12.70
2018-12-06T06:23:03.999Z,11.70
2018-12-06T06:24:12.784Z,11.40
2018-12-06T06:25:11.639Z,11.70
2018-12-06T06:26:11.586Z,11.90
2018-12-06T06:28:14.289Z,10.60
2018-12-06T06:30:23.475Z,11.40
2018-12-06T06:31:23.430Z,12.40
2018-12-06T06:32:32.912Z,12.00
2018-12-06T06:33:23.515Z,12.90
2018-12-06T06:34:23.522Z,12.80
2018-12-06T06:35:23.450Z,13.10
2018-12-06T06:36:23.547Z,13.50
2018-12-06T06:37:23.424Z,13.80
2018-12-06T06:38:23.341Z,14.00
2018-12-06T06:39:23.348Z,13.30
2018-12-06T06:40:23.352Z,14.10
2018-12-06T06:41:23.308Z,13.60
2018-12-06T06:42:23.338Z,14.40
2018-12-06T06:43:23.330Z,14.90
2018-12-06T06:44:23.274Z,13.90
2018-12-06T06:45:23.264Z,14.90
2018-12-06T06:46:23.263Z,14.70
2018-12-06T06:47:23.300Z,14.00
2018-12-06T06:48:23.274Z,14.20
2018-12-06T06:49:23.230Z,14.20
2018-12-06T06:50:23.210Z,13.80
2018-12-06T06:51:23.260Z,13.30
2018-12-06T06:52:23.192Z,14.20
2018-12-06T06:53:23.201Z,14.20
2018-12-06T06:54:23.170Z,22.30
2018-12-06T06:55:30.842Z,15.20
2018-12-06T06:56:23.268Z,14.90
2018-12-06T06:57:23.167Z,13.80
2018-12-06T06:58:23.274Z,14.00
2018-12-06T06:59:26.179Z,13.60
2018-12-06T07:00:23.250Z,13.80
2018-12-06T07:01:23.093Z,13.50
2018-12-06T07:02:23.134Z,13.40
2018-12-06T07:03:23.089Z,12.70
2018-12-06T07:04:23.059Z,12.40
2018-12-06T07:05:23.172Z,13.30
2018-12-06T07:06:23.043Z,13.00
2018-12-06T07:07:31.343Z,13.30
2018-12-06T07:08:31.964Z,13.60
2018-12-06T07:10:34.409Z,11.90
2018-12-06T07:11:43.364Z,13.50
2018-12-06T07:12:34.317Z,13.80
2018-12-06T07:13:34.338Z,13.30
2018-12-06T07:14:34.289Z,13.70
2018-12-06T07:15:34.370Z,14.10
2018-12-06T07:16:34.187Z,13.50
2018-12-06T07:17:34.211Z,13.20
2018-12-06T07:18:34.157Z,12.90
2018-12-06T07:19:34.169Z,14.10
2018-12-06T07:20:34.174Z,13.20
2018-12-06T07:21:34.133Z,13.10
2018-12-06T07:22:34.119Z,13.20
2018-12-06T07:23:34.147Z,13.70
2018-12-06T07:24:34.091Z,13.10
2018-12-06T07:25:34.143Z,12.90
2018-12-06T07:26:34.141Z,14.10
2018-12-06T07:27:34.063Z,13.80
2018-12-06T07:28:34.053Z,14.20
2018-12-06T07:29:34.066Z,14.30
2018-12-06T07:30:34.030Z,14.40
2018-12-06T07:31:34.034Z,14.90
2018-12-06T07:32:34.007Z,14.30
2018-12-06T07:33:44.681Z,14.50
2018-12-06T07:34:34.090Z,15.10
2018-12-06T07:35:34.047Z,14.20
2018-12-06T07:36:43.831Z,15.10
2018-12-06T07:37:33.964Z,14.20
2018-12-06T07:38:34.065Z,14.60
2018-12-06T07:39:34.033Z,15.50
2018-12-06T07:40:34.059Z,15.10
2018-12-06T07:41:33.962Z,14.10
2018-12-06T07:42:33.908Z,14.50
2018-12-06T07:43:33.897Z,15.20
2018-12-06T07:44:33.905Z,14.20
2018-12-06T07:45:33.924Z,15.20
2018-12-06T07:46:33.854Z,15.70
2018-12-06T07:47:33.863Z,15.00
2018-12-06T07:48:33.835Z,15.10
2018-12-06T07:49:33.868Z,15.30
2018-12-06T07:50:33.834Z,15.50
2018-12-06T07:51:33.804Z,15.20
2018-12-06T07:52:33.794Z,15.00
2018-12-06T07:53:42.473Z,14.90
2018-12-06T07:54:33.871Z,15.20
2018-12-06T07:55:33.809Z,15.80
2018-12-06T07:56:33.890Z,15.40
2018-12-06T07:57:33.776Z,14.70
2018-12-06T07:58:33.782Z,15.30
2018-12-06T07:59:33.796Z,14.70
2018-12-06T08:00:43.800Z,15.20
2018-12-06T08:01:33.737Z,15.80
2018-12-06T08:02:33.739Z,15.30
2018-12-06T08:03:33.714Z,14.10
2018-12-06T08:04:33.756Z,15.00
2018-12-06T08:05:33.767Z,14.50
2018-12-06T08:06:41.209Z,14.40
2018-12-06T08:07:33.628Z,15.50
2018-12-06T08:08:33.628Z,14.30
2018-12-06T08:09:33.605Z,14.90
2018-12-06T08:10:33.619Z,14.70
2018-12-06T08:11:33.605Z,14.70
2018-12-06T08:12:33.578Z,14.60
2018-12-06T08:13:33.563Z,14.80
2018-12-06T08:14:33.556Z,14.30
2018-12-06T08:15:33.561Z,14.80
2018-12-06T08:16:33.531Z,14.20
2018-12-06T08:17:33.529Z,14.40
2018-12-06T08:18:33.516Z,15.00
2018-12-06T08:19:33.498Z,14.00
2018-12-06T08:20:33.507Z,14.50
2018-12-06T08:21:33.476Z,15.00
2018-12-06T08:22:33.464Z,14.70
2018-12-06T08:23:33.482Z,14.40
2018-12-06T08:24:33.447Z,15.00
2018-12-06T08:25:33.461Z,14.60
2018-12-06T08:26:33.428Z,15.10
2018-12-06T08:27:33.426Z,14.30
2018-12-06T08:28:33.403Z,15.20
2018-12-06T08:29:33.389Z,14.20
2018-12-06T08:30:33.398Z,14.30
2018-12-06T08:31:33.442Z,14.20
2018-12-06T08:32:33.364Z,14.10
2018-12-06T08:33:33.354Z,14.10
2018-12-06T08:34:33.385Z,14.00
2018-12-06T08:35:33.375Z,14.60
2018-12-06T08:36:33.363Z,14.60
2018-12-06T08:37:33.311Z,14.50
2018-12-06T08:38:33.294Z,17.70
2018-12-06T08:39:33.283Z,16.70
2018-12-06T08:40:33.273Z,16.40
2018-12-06T08:41:33.327Z,14.20
2018-12-06T08:42:33.254Z,14.40
2018-12-06T08:43:33.242Z,14.70
2018-12-06T08:44:33.257Z,14.40
2018-12-06T08:45:33.219Z,14.60
2018-12-06T08:46:33.229Z,14.10
2018-12-06T08:47:33.199Z,15.00
2018-12-06T08:48:33.184Z,14.40
2018-12-06T08:49:33.176Z,14.30
2018-12-06T08:50:33.216Z,14.80
2018-12-06T08:51:33.209Z,14.90
2018-12-06T08:52:33.146Z,14.60
2018-12-06T08:53:33.135Z,14.80
2018-12-06T08:54:33.126Z,13.70
2018-12-06T08:55:33.109Z,14.60
2018-12-06T08:56:33.104Z,14.40
2018-12-06T08:57:33.147Z,13.80
2018-12-06T08:58:33.081Z,13.70
2018-12-06T08:59:33.070Z,14.70
2018-12-06T09:00:33.059Z,14.30
2018-12-06T09:01:33.070Z,14.90
2018-12-06T09:02:33.051Z,14.40
2018-12-06T09:03:33.025Z,14.30
2018-12-06T09:04:33.046Z,13.60
2018-12-06T09:05:33.004Z,14.50
2018-12-06T09:06:32.993Z,14.00
2018-12-06T09:07:33.007Z,14.50
2018-12-06T09:08:32.989Z,14.10
2018-12-06T09:09:32.962Z,14.00
2018-12-06T09:10:32.951Z,14.10
2018-12-06T09:11:32.955Z,14.10
2018-12-06T09:12:32.948Z,14.00
2018-12-06T09:13:32.917Z,14.20
2018-12-06T09:14:32.929Z,13.40
2018-12-06T09:15:32.892Z,13.90
2018-12-06T09:16:32.883Z,14.50
2018-12-06T09:17:32.949Z,14.00
2018-12-06T09:18:32.865Z,14.00
2018-12-06T09:19:32.853Z,13.80
2018-12-06T09:20:32.841Z,13.80
2018-12-06T09:21:32.830Z,12.60
2018-12-06T09:22:32.838Z,13.30
2018-12-06T09:23:32.853Z,12.80
2018-12-06T09:24:32.797Z,12.80
2018-12-06T09:25:32.794Z,13.60
2018-12-06T09:26:32.772Z,14.30
2018-12-06T09:27:32.782Z,14.20
2018-12-06T09:28:32.753Z,14.80
2018-12-06T09:29:32.747Z,14.90
2018-12-06T09:30:32.741Z,14.20
2018-12-06T09:31:32.725Z,14.90
2018-12-06T09:32:32.712Z,14.90
2018-12-06T09:33:32.746Z,16.00
2018-12-06T09:34:32.695Z,16.30
2018-12-06T09:35:32.677Z,17.10
2018-12-06T09:36:32.667Z,16.20
2018-12-06T09:37:32.674Z,15.20
2018-12-06T09:38:32.683Z,14.60
2018-12-06T09:39:32.637Z,14.00
2018-12-06T09:40:32.624Z,14.00
2018-12-06T09:41:32.610Z,13.80
2018-12-06T09:42:32.600Z,12.90
2018-12-06T09:43:32.618Z,13.70
2018-12-06T09:44:32.584Z,12.50
2018-12-06T09:45:32.579Z,12.80
2018-12-06T09:46:32.569Z,13.20
2018-12-06T09:47:32.576Z,13.00
2018-12-06T09:48:32.571Z,12.20
2018-12-06T09:49:32.889Z,12.40
2018-12-06T09:50:40.066Z,12.60
2018-12-06T09:51:32.502Z,12.80
2018-12-06T09:52:32.493Z,12.00
2018-12-06T09:53:32.539Z,12.50
2018-12-06T09:54:32.483Z,12.90
2018-12-06T09:55:32.463Z,12.50
2018-12-06T09:56:32.498Z,12.50
2018-12-06T09:57:39.987Z,12.20
2018-12-06T09:58:32.448Z,13.00
2018-12-06T09:59:32.420Z,12.50
2018-12-06T10:00:32.430Z,11.70
2018-12-06T10:01:32.394Z,12.30
2018-12-06T10:02:32.391Z,10.80
2018-12-06T10:03:32.398Z,11.60
2018-12-06T10:04:32.372Z,11.70
2018-12-06T10:05:32.354Z,11.60
2018-12-06T10:06:32.346Z,11.80
2018-12-06T10:07:32.334Z,11.60
2018-12-06T10:08:32.338Z,11.50
2018-12-06T10:09:32.352Z,11.20
2018-12-06T10:10:32.346Z,11.30
2018-12-06T10:11:32.291Z,11.90
2018-12-06T10:12:32.302Z,10.90
2018-12-06T10:13:32.310Z,11.00
2018-12-06T10:14:32.268Z,11.60
2018-12-06T10:15:32.247Z,11.80
2018-12-06T10:16:32.237Z,12.00
2018-12-06T10:17:32.254Z,11.90
2018-12-06T10:18:32.253Z,10.60
2018-12-06T10:19:32.211Z,11.10
2018-12-06T10:20:32.228Z,10.70
2018-12-06T10:21:32.206Z,11.40
2018-12-06T10:22:32.174Z,11.30
2018-12-06T10:23:32.186Z,10.50
2018-12-06T10:24:32.157Z,10.80
2018-12-06T10:25:39.697Z,11.80
2018-12-06T10:26:32.130Z,11.40
2018-12-06T10:27:32.121Z,11.20
2018-12-06T10:28:32.137Z,11.40
2018-12-06T10:29:32.095Z,11.40
2018-12-06T10:30:32.140Z,11.00
2018-12-06T10:31:32.076Z,11.30
2018-12-06T10:32:39.610Z,11.50
2018-12-06T10:33:32.073Z,11.60
2018-12-06T10:34:32.044Z,11.60
2018-12-06T10:35:32.095Z,11.60
2018-12-06T10:36:32.052Z,11.10
2018-12-06T10:37:32.013Z,11.50
2018-12-06T10:38:32.051Z,11.90
2018-12-06T10:39:31.989Z,11.80
2018-12-06T10:40:39.823Z,12.60
2018-12-06T10:41:32.025Z,12.30
2018-12-06T10:42:39.889Z,11.90
2018-12-06T10:43:32.097Z,12.60
2018-12-06T10:44:32.098Z,12.60
2018-12-06T10:45:32.104Z,12.00
2018-12-06T10:46:31.940Z,11.50
2018-12-06T10:47:31.910Z,12.10
2018-12-06T10:48:31.902Z,11.40
2018-12-06T10:49:40.769Z,11.00
2018-12-06T10:50:39.651Z,11.10
2018-12-06T10:51:31.967Z,9.90
2018-12-06T10:53:50.925Z,8.60
2018-12-06T10:56:01.070Z,7.80
2018-12-06T10:57:09.955Z,8.00
2018-12-06T10:58:08.728Z,8.10
2018-12-06T10:59:08.695Z,7.60
2018-12-06T11:01:18.970Z,6.30
2018-12-06T11:03:28.258Z,6.10
2018-12-06T11:04:28.153Z,7.40
2018-12-06T11:05:28.147Z,6.90
2018-12-06T11:06:28.194Z,7.40
2018-12-06T11:07:28.058Z,7.10
2018-12-06T11:08:27.992Z,6.90
2018-12-06T11:10:45.974Z,5.40
2018-12-06T11:11:45.821Z,6.50
2018-12-06T11:12:45.853Z,6.70
2018-12-06T11:15:03.996Z,5.30
2018-12-06T11:16:03.991Z,6.00
2018-12-06T11:17:03.905Z,6.20
2018-12-06T11:18:03.916Z,7.60
2018-12-06T11:19:03.921Z,7.10
2018-12-06T11:20:03.922Z,6.80
2018-12-06T11:21:11.942Z,7.10
2018-12-06T11:22:03.915Z,6.60
2018-12-06T11:23:11.525Z,6.20
2018-12-06T11:24:03.896Z,6.60
2018-12-06T11:25:03.958Z,6.20
2018-12-06T11:26:03.883Z,6.40
2018-12-06T11:27:03.803Z,7.10
2018-12-06T11:28:03.814Z,5.90
2018-12-06T11:29:12.806Z,6.30
2018-12-06T11:30:03.856Z,6.20
2018-12-06T11:31:03.801Z,6.40
2018-12-06T11:32:03.861Z,6.60
2018-12-06T11:33:03.815Z,6.80
2018-12-06T11:34:03.762Z,6.30
2018-12-06T11:35:03.765Z,6.90
2018-12-06T11:36:03.961Z,6.10
2018-12-06T11:37:12.539Z,5.40
2018-12-06T11:38:12.796Z,6.00
2018-12-06T11:39:04.011Z,6.30
2018-12-06T11:40:03.711Z,6.20
2018-12-06T11:41:03.785Z,5.60
2018-12-06T11:42:03.669Z,5.00
2018-12-06T11:43:03.628Z,4.90
2018-12-06T11:44:03.614Z,5.00
2018-12-06T11:45:03.579Z,4.90
2018-12-06T11:46:03.660Z,4.50
2018-12-06T11:47:03.643Z,4.90
2018-12-06T11:48:03.553Z,4.40
2018-12-06T11:49:12.694Z,4.50
2018-12-06T11:50:03.697Z,4.50
2018-12-06T11:51:03.626Z,4.80
2018-12-06T11:52:12.240Z,4.30
2018-12-06T11:53:03.672Z,4.30
2018-12-06T11:54:11.878Z,4.50
2018-12-06T11:55:03.618Z,4.70
2018-12-06T11:56:13.633Z,4.60
2018-12-06T11:57:03.580Z,4.90
2018-12-06T11:58:03.552Z,4.30
2018-12-06T11:59:11.246Z,4.80
2018-12-06T12:01:21.412Z,5.40
2018-12-06T12:02:21.319Z,4.50
2018-12-06T12:03:21.234Z,4.40
2018-12-06T12:04:21.296Z,5.00
2018-12-06T12:05:21.163Z,5.30
2018-12-06T12:06:21.450Z,5.00
2018-12-06T12:07:21.200Z,4.20
2018-12-06T12:08:21.137Z,4.60
2018-12-06T12:09:29.818Z,4.50
2018-12-06T12:10:21.200Z,4.60
2018-12-06T12:11:21.171Z,4.30
2018-12-06T12:12:31.422Z,5.10
2018-12-06T12:13:28.891Z,4.30
2018-12-06T12:14:21.108Z,4.40
2018-12-06T12:15:29.663Z,4.10
2018-12-06T12:16:21.423Z,4.20
2018-12-06T12:17:21.088Z,4.20
2018-12-06T12:18:21.239Z,4.00
2018-12-06T12:19:21.030Z,4.20
2018-12-06T12:20:20.982Z,3.90
2018-12-06T12:21:21.018Z,3.90
2018-12-06T12:22:28.754Z,3.90
2018-12-06T12:24:31.411Z,3.90
2018-12-06T12:26:41.874Z,3.90
2018-12-06T12:28:52.195Z,4.90
2018-12-06T12:29:59.748Z,4.30
2018-12-06T12:32:02.378Z,4.00
2018-12-06T12:33:02.429Z,4.70
2018-12-06T12:34:02.361Z,4.50
2018-12-06T12:35:02.240Z,3.90
2018-12-06T12:36:02.198Z,4.20
2018-12-06T12:37:02.184Z,3.60
2018-12-06T12:38:02.307Z,4.10
2018-12-06T12:39:02.202Z,3.80
2018-12-06T12:40:02.172Z,4.10
2018-12-06T12:41:09.706Z,4.10
2018-12-06T12:42:02.114Z,4.50
2018-12-06T12:43:02.194Z,4.20
2018-12-06T12:44:02.129Z,5.00
2018-12-06T12:45:02.112Z,4.50
2018-12-06T12:46:02.067Z,4.00
2018-12-06T12:47:02.090Z,4.60
2018-12-06T12:48:02.045Z,3.90
2018-12-06T12:49:02.062Z,4.20
2018-12-06T12:50:02.139Z,3.90
2018-12-06T12:51:02.010Z,4.00
2018-12-06T12:52:01.994Z,3.90
2018-12-06T12:53:02.001Z,3.70
2018-12-06T12:54:01.973Z,4.00
2018-12-06T12:55:01.992Z,4.00
2018-12-06T12:56:01.974Z,5.50
2018-12-06T12:57:01.943Z,4.40
2018-12-06T12:58:01.929Z,4.80
2018-12-06T12:59:01.920Z,4.20
2018-12-06T13:00:01.953Z,6.00
2018-12-06T13:01:01.918Z,5.90
2018-12-06T13:02:01.885Z,6.40
2018-12-06T13:03:01.877Z,4.20
2018-12-06T13:04:01.867Z,4.40
2018-12-06T13:05:01.902Z,4.50
2018-12-06T13:06:01.884Z,3.90
2018-12-06T13:07:01.829Z,4.00
2018-12-06T13:08:01.824Z,3.90
2018-12-06T13:09:01.809Z,4.20
2018-12-06T13:10:01.808Z,4.40
2018-12-06T13:11:01.833Z,4.20
2018-12-06T13:12:01.799Z,3.80
2018-12-06T13:13:01.915Z,4.60